Time;durP1;ratioP1;P1;durP2;ratioP2;P2;SDS_P1;SDS_P2;PMS_P1;PMS_P2;Temp;Humidity;BMP_temperature;BMP_pressure;BME280_temperature;BME280_humidity;BME280_pressure;Samples;Min_cycle;Max_cycle;Signal;HPM_P1;HPM_P2
2022/06/17 00:01:47;;;;;;;10.60;7.72;;;;;;;;;;4987148;28;20489;-87
2022/06/17 00:04:12;;;;;;;8.70;7.80;;;;;;;14.26;90.49;68360.75;5004371;28;20038;-87
2022/06/17 00:06:54;;;;;;;9.75;7.88;;;;;;;14.21;90.57;68355.66;4987728;28;20046;-87
2022/06/17 00:09:20;;;;;;;9.70;8.02;;;;;;;;;;5010848;28;20041;-87
2022/06/17 00:11:46;;;;;;;10.82;8.02;;;;;;;14.14;90.86;68345.00;5008112;28;20046;-87
2022/06/17 00:14:18;;;;;;;8.88;7.85;;;;;;;14.11;90.91;68343.69;5007109;28;20046;-87
2022/06/17 00:16:45;;;;;;;8.68;7.63;;;;;;;14.09;90.95;68341.41;5009118;28;20046;-87
2022/06/17 00:19:11;;;;;;;9.95;8.20;;;;;;;14.00;91.43;68334.41;5023702;28;20096;-87
2022/06/17 00:21:38;;;;;;;9.60;8.57;;;;;;;;;;5005856;28;20088;-86
2022/06/17 00:24:15;;;;;;;10.13;8.65;;;;;;;;;;5000517;28;20073;-86
2022/06/17 00:26:41;;;;;;;10.07;8.00;;;;;;;13.81;92.92;68308.03;5005825;28;20050;-85
2022/06/17 00:29:08;;;;;;;9.93;8.80;;;;;;;;;;5006503;28;20034;-86
2022/06/17 00:31:34;;;;;;;9.90;8.35;;;;;;;13.75;92.79;68301.78;4995079;28;20045;-86
2022/06/17 00:33:59;;;;;;;9.60;8.60;;;;;;;13.72;93.35;68303.72;5023306;28;20041;-86
2022/06/17 00:36:25;;;;;;;9.93;8.68;;;;;;;13.71;92.93;68297.22;5011491;28;20050;-86
2022/06/17 00:38:52;;;;;;;9.57;8.55;;;;;;;;;;5007584;28;20497;-86
2022/06/17 00:41:29;;;;;;;9.90;8.32;;;;;;;13.67;93.27;68292.09;5006548;28;20033;-86
2022/06/17 00:43:54;;;;;;;10.98;9.38;;;;;;;;;;5008360;28;20121;-86
2022/06/17 00:46:34;;;;;;;10.50;9.38;;;;;;;13.58;93.22;68281.84;5001078;28;20130;-86
2022/06/17 00:49:11;;;;;;;11.77;9.75;;;;;;;13.52;93.80;68278.25;4971845;28;20126;-86
2022/06/17 00:51:45;;;;;;;10.75;9.35;;;;;;;;;;4992962;28;20050;-86
2022/06/17 00:54:18;;;;;;;10.32;8.85;;;;;;;13.52;93.23;68270.25;5006042;28;20563;-86
2022/06/17 00:56:43;;;;;;;10.25;8.25;;;;;;;13.51;93.12;68274.47;5007556;28;20061;-86
2022/06/17 00:59:13;;;;;;;14.05;10.40;;;;;;;13.49;93.37;68272.75;5007431;28;20069;-87
2022/06/17 01:01:58;;;;;;;12.18;9.32;;;;;;;13.49;93.27;68272.75;5022951;28;20042;-86
2022/06/17 01:04:29;;;;;;;10.52;8.88;;;;;;;13.54;93.13;68283.22;5008446;28;20499;-87
2022/06/17 01:07:00;;;;;;;11.00;9.05;;;;;;;13.54;92.82;68278.44;5005768;28;20130;-86
2022/06/17 01:12:19;;;;;;;10.63;9.52;;;;;;;;;;4990148;28;20068;-86
2022/06/17 01:14:45;;;;;;;11.52;9.45;;;;;;;13.35;94.18;68259.50;5007288;28;20099;-86
2022/06/17 01:17:14;;;;;;;11.90;9.35;;;;;;;13.32;94.44;68259.34;5006183;28;20496;-86
2022/06/17 01:19:55;;;;;;;10.00;8.98;;;;;;;13.26;94.82;68249.84;5012184;28;20144;-86
2022/06/17 01:22:27;;;;;;;11.13;8.77;;;;;;;13.23;94.94;68243.72;5007350;28;20530;-86
2022/06/17 01:25:07;;;;;;;12.02;9.38;;;;;;;13.18;95.57;68238.06;5006268;28;20066;-86
2022/06/17 01:27:36;;;;;;;10.75;9.65;;;;;;;13.17;95.80;68236.34;4996704;28;20042;-88
2022/06/17 01:30:03;;;;;;;11.18;10.00;;;;;;;13.16;95.60;68235.75;4998927;28;20567;-87
2022/06/17 01:32:36;;;;;;;12.13;10.02;;;;;;;13.12;95.83;68231.22;5014668;28;20050;-86
2022/06/17 01:35:03;;;;;;;12.57;10.25;;;;;;;13.15;95.39;68237.31;4984275;28;20045;-87
2022/06/17 01:37:30;;;;;;;11.32;10.23;;;;;;;13.10;95.56;68228.94;5018128;28;20038;-87
2022/06/17 01:39:56;;;;;;;12.75;10.65;;;;;;;;;;5014906;28;20046;-87
2022/06/17 01:42:23;;;;;;;12.00;10.57;;;;;;;13.14;95.83;68233.50;5023903;28;20507;-87
2022/06/17 01:44:52;;;;;;;11.32;10.18;;;;;;;13.12;95.81;68231.22;5021854;28;20037;-87
2022/06/17 01:47:23;;;;;;;13.50;11.05;;;;;;;13.09;95.90;68231.06;5023937;28;20041;-87
2022/06/17 01:49:54;;;;;;;12.63;11.15;;;;;;;13.03;96.61;68220.97;5007073;28;20045;-87
2022/06/17 01:52:28;;;;;;;11.80;10.52;;;;;;;13.05;96.26;68223.25;5004244;28;20073;-86
2022/06/17 01:55:00;;;;;;;13.57;10.93;;;;;;;13.03;96.44;68226.31;5020796;28;20065;-86
2022/06/17 01:57:35;;;;;;;11.75;10.57;;;;;;;13.02;96.31;68225.75;5018607;28;20066;-87
2022/06/17 02:00:14;;;;;;;12.18;10.90;;;;;;;13.04;95.63;68222.69;4997360;28;20049;-86
2022/06/17 02:02:41;;;;;;;12.75;10.82;;;;;;;12.99;95.73;68219.66;5004891;28;20052;-88
2022/06/17 02:05:09;;;;;;;15.15;10.77;;;;;;;12.99;95.60;68216.44;5005286;28;20042;-87
2022/06/17 02:07:52;;;;;;;14.57;10.63;;;;;;;12.94;96.16;68213.41;5002513;28;20121;-87
2022/06/17 02:10:17;;;;;;;13.90;11.50;;;;;;;12.91;96.31;68207.34;5005954;28;20120;-87
2022/06/17 02:12:43;;;;;;;11.70;10.35;;;;;;;;;;5018841;28;20444;-87
2022/06/17 02:15:10;;;;;;;12.80;11.48;;;;;;;12.82;96.60;68203.59;5004678;28;20511;-87
2022/06/17 02:17:41;;;;;;;14.25;11.13;;;;;;;12.82;96.63;68200.34;5001089;28;20029;-88
2022/06/17 02:20:09;;;;;;;13.23;11.82;;;;;;;12.84;96.16;68203.19;5005289;28;20038;-87
2022/06/17 02:22:35;;;;;;;12.02;10.70;;;;;;;12.76;96.56;68194.09;5006937;28;20524;-88
2022/06/17 02:25:06;;;;;;;12.27;11.07;;;;;;;12.71;96.86;68191.06;5006952;28;20046;-87
2022/06/17 02:27:34;;;;;;;13.15;11.60;;;;;;;12.72;96.68;68189.56;5003856;28;20046;-88
2022/06/17 02:30:01;;;;;;;12.70;11.40;;;;;;;12.64;96.77;68180.47;5005357;28;20046;-87
2022/06/17 02:32:26;;;;;;;13.57;12.00;;;;;;;12.62;97.16;68178.19;5004418;28;20132;-87
2022/06/17 02:34:58;;;;;;;12.65;11.45;;;;;;;;;;5004100;28;20563;-87
2022/06/17 02:37:24;;;;;;;15.38;11.70;;;;;;;12.67;97.16;68181.19;5020321;28;20505;-87
2022/06/17 02:39:52;;;;;;;13.65;12.02;;;;;;;12.65;97.30;68184.25;5004794;28;20054;-86
2022/06/17 02:42:28;;;;;;;13.23;11.93;;;;;;;12.63;97.30;68177.22;5000512;28;20120;-87
2022/06/17 02:44:58;;;;;;;12.80;11.45;;;;;;;12.61;97.17;68177.03;5004503;28;20076;-87
2022/06/17 02:47:25;;;;;;;13.23;11.15;;;;;;;12.63;97.56;68182.00;5001860;28;20143;-88
2022/06/17 02:49:52;;;;;;;13.38;11.45;;;;;;;12.61;97.43;68174.94;5003664;28;20156;-87
2022/06/17 02:52:23;;;;;;;13.02;11.20;;;;;;;12.63;97.09;68179.31;5006009;28;20045;-87
2022/06/17 02:54:51;;;;;;;14.20;12.02;;;;;;;;;;5003555;28;20078;-88
2022/06/17 02:57:21;;;;;;;15.27;11.82;;;;;;;12.63;96.84;68179.88;5006419;28;20030;-87
2022/06/17 02:59:58;;;;;;;12.25;10.95;;;;;;;12.64;97.03;68177.78;5023843;28;20045;-87
2022/06/17 03:02:29;;;;;;;13.68;11.80;;;;;;;12.65;96.91;68178.91;5007142;28;20060;-87
2022/06/17 03:04:56;;;;;;;15.48;11.63;;;;;;;12.61;97.37;68179.72;5026551;28;20068;-87
2022/06/17 03:07:22;;;;;;;12.18;10.95;;;;;;;;;;5023044;28;20044;-88
2022/06/17 03:09:48;;;;;;;13.40;11.40;;;;;;;12.68;97.12;68181.75;5003722;28;20054;-87
2022/06/17 03:12:18;;;;;;;16.13;10.98;;;;;;;12.66;96.93;68180.06;5008690;28;20046;-87
2022/06/17 03:14:51;;;;;;;13.98;12.00;;;;;;;12.63;97.33;68177.22;5021615;28;20050;-87
2022/06/17 03:17:20;;;;;;;14.18;11.68;;;;;;;12.69;97.80;68186.16;5026223;28;20030;-88
2022/06/17 03:19:47;;;;;;;14.05;12.55;;;;;;;12.72;97.41;68191.66;5008060;28;20056;-87
2022/06/17 03:22:13;;;;;;;15.73;11.82;;;;;;;12.76;97.18;68191.41;5026286;28;20496;-87
2022/06/17 03:24:46;;;;;;;14.68;12.32;;;;;;;12.82;96.88;68192.91;5007846;28;20050;-87
2022/06/17 03:27:20;;;;;;;13.00;11.70;;;;;;;12.93;96.22;68209.63;5009195;28;20049;-87
2022/06/17 03:29:49;;;;;;;13.45;11.43;;;;;;;12.94;95.92;68213.41;5006691;28;20034;-87
2022/06/17 03:32:27;;;;;;;13.20;11.90;;;;;;;12.95;96.94;68215.13;5011765;28;20049;-86
2022/06/17 03:34:54;;;;;;;18.23;11.60;;;;;;;12.99;96.49;68219.09;5007562;28;20041;-87
2022/06/17 03:37:44;;;;;;;14.23;12.80;;;;;;;13.03;95.81;68221.56;5009483;28;20046;-87
2022/06/17 03:40:22;;;;;;;13.20;11.80;;;;;;;13.09;95.74;68227.81;4985533;28;20037;-87
2022/06/17 03:42:59;;;;;;;13.88;12.38;;;;;;;13.14;95.89;68236.16;4987059;28;20400;-87
2022/06/17 03:45:31;;;;;;;13.88;11.75;;;;;;;;;;4995536;28;20120;-86
2022/06/17 03:48:24;;;;;;;13.35;11.70;;;;;;;13.26;95.75;68247.16;5006350;28;20065;-85
2022/06/17 03:50:49;;;;;;;13.80;11.98;;;;;;;13.32;94.91;68256.66;5006802;28;20049;-85
2022/06/17 03:53:25;;;;;;;12.75;11.45;;;;;;;;;;5007281;28;20481;-87
2022/06/17 03:55:52;;;;;;;12.85;11.55;;;;;;;13.50;93.52;68276.56;4997772;28;20054;-86
2022/06/17 03:58:19;;;;;;;13.27;11.38;;;;;;;13.56;93.70;68279.59;5008791;28;20037;-87
2022/06/17 04:01:08;;;;;;;12.50;11.15;;;;;;;13.64;93.49;68289.25;5005672;28;20197;-86
2022/06/17 04:03:34;;;;;;;15.50;11.20;;;;;;;;;;4990269;28;20649;-86
2022/06/17 04:06:13;;;;;;;12.98;11.65;;;;;;;13.84;91.50;68310.84;5007172;28;20038;-86
2022/06/17 04:08:56;;;;;;;12.35;10.98;;;;;;;13.90;92.37;68320.38;5000001;28;20065;-87
2022/06/17 04:11:26;;;;;;;14.65;11.82;;;;;;;13.91;92.19;68322.06;5006116;28;20184;-87
2022/06/17 04:13:54;;;;;;;12.98;11.23;;;;;;;13.96;91.24;68324.53;5005618;28;20045;-88
2022/06/17 04:16:20;;;;;;;13.93;11.43;;;;;;;;;;5016416;28;20058;-87
2022/06/17 04:18:45;;;;;;;13.07;11.50;;;;;;;;;;5004864;28;20425;-87
2022/06/17 04:21:14;;;;;;;13.65;11.20;;;;;;;14.02;90.60;68330.78;5008629;28;20129;-87
2022/06/17 04:23:40;;;;;;;;;;;;;;;14.05;89.49;68334.75;5007906;28;20034;-87
2022/06/17 04:26:29;;;;;;;12.77;10.13;;;;;;;14.05;90.09;68337.44;5012644;28;20569;-87
2022/06/17 04:28:59;;;;;;;;;;;;;;;14.09;89.90;68341.97;5022269;28;20045;-86
2022/06/17 04:31:27;;;;;;;12.80;10.93;;;;;;;14.05;90.84;68336.88;5001749;28;19917;-87
2022/06/17 04:34:04;;;;;;;15.85;11.82;;;;;;;14.07;89.95;68342.41;5005659;28;20046;-87
2022/06/17 04:36:35;;;;;;;14.75;11.57;;;;;;;;;;5007572;28;20046;-87
2022/06/17 04:39:03;;;;;;;13.48;11.27;;;;;;;14.30;89.31;68362.06;5023114;28;20040;-87
2022/06/17 04:41:33;;;;;;;12.27;10.98;;;;;;;14.42;88.45;68378.41;5018955;28;20071;-87
2022/06/17 04:44:01;;;;;;;15.45;10.75;;;;;;;14.54;87.21;68388.84;4988376;28;20049;-87
2022/06/17 04:46:37;;;;;;;14.82;11.50;;;;;;;14.65;86.74;68407.31;4990919;28;20038;-87
2022/06/17 04:49:04;;;;;;;11.98;10.75;;;;;;;14.78;85.32;68410.81;5009866;28;20041;-87
2022/06/17 04:51:33;;;;;;;13.48;10.10;;;;;;;14.89;85.16;68428.13;5008203;28;20091;-88
2022/06/17 04:53:59;;;;;;;12.68;10.38;;;;;;;;;;5004817;28;20053;-88
2022/06/17 04:56:39;;;;;;;12.23;10.32;;;;;;;15.10;83.16;68452.06;5008348;28;20041;-87
2022/06/17 04:59:23;;;;;;;11.80;9.68;;;;;;;15.25;83.18;68470.69;5013101;28;20042;-88
2022/06/17 05:01:49;;;;;;;11.18;9.55;;;;;;;15.31;83.10;68475.41;5019188;28;20129;-88
2022/06/17 05:04:16;;;;;;;12.38;10.57;;;;;;;15.40;82.98;68479.16;5024231;28;20057;-88
2022/06/17 05:06:42;;;;;;;13.43;10.38;;;;;;;15.49;81.84;68495.34;5024323;28;20042;-88
2022/06/17 05:09:17;;;;;;;12.35;10.02;;;;;;;15.62;81.42;68509.00;5028835;28;20037;-88
2022/06/17 05:11:47;;;;;;;11.25;9.57;;;;;;;15.75;80.78;68523.84;5040590;28;20043;-88
2022/06/17 05:14:12;;;;;;;10.63;9.50;;;;;;;;;;5035939;23;20054;-79
2022/06/17 05:16:37;;;;;;;12.53;8.70;;;;;;;16.01;79.16;68555.59;4998097;28;20411;-77
2022/06/17 05:19:03;;;;;;;11.60;9.35;;;;;;;16.10;79.73;68563.16;4999069;28;20280;-78
2022/06/17 05:21:28;;;;;;;10.77;8.82;;;;;;;16.15;78.71;68562.94;4998910;28;20556;-78
2022/06/17 05:23:58;;;;;;;9.88;8.88;;;;;;;16.19;78.33;68572.84;5005903;28;20041;-79
2022/06/17 05:26:24;;;;;;;22.35;14.10;;;;;;;16.19;78.17;68568.03;4994445;28;20034;-78
2022/06/17 05:28:50;;;;;;;14.15;9.52;;;;;;;;;;4978774;28;20110;-78
2022/06/17 05:31:18;;;;;;;12.93;9.15;;;;;;;16.22;77.98;68570.91;4981800;28;20120;-79
2022/06/17 05:33:45;;;;;;;14.55;10.70;;;;;;;;;;4985959;28;20038;-79
2022/06/17 05:36:11;;;;;;;12.43;8.70;;;;;;;16.22;78.69;68576.84;4986931;28;20045;-79
2022/06/17 05:38:36;;;;;;;10.88;8.70;;;;;;;16.25;79.16;68574.31;5002140;28;20550;-78
2022/06/17 05:41:04;;;;;;;10.98;7.90;;;;;;;16.27;78.42;68581.97;5002905;28;20112;-78
2022/06/17 05:43:30;;;;;;;10.53;8.40;;;;;;;16.39;78.50;68595.66;5002504;28;20089;-77
2022/06/17 05:45:55;;;;;;;11.13;8.05;;;;;;;16.57;77.83;68615.03;4987059;28;20043;-78
2022/06/17 05:48:20;;;;;;;10.60;7.38;;;;;;;16.77;77.12;68631.91;4998830;28;20515;-78
2022/06/17 05:50:46;;;;;;;9.55;7.57;;;;;;;17.00;75.79;68657.56;4969029;28;20035;-79
2022/06/17 05:53:13;;;;;;;11.00;7.40;;;;;;;17.16;73.49;68680.63;4974860;28;20501;-79
2022/06/17 05:55:38;;;;;;;9.10;6.93;;;;;;;;;;4979536;28;20497;-78
2022/06/17 05:58:05;;;;;;;8.18;6.55;;;;;;;17.41;72.85;68709.16;4982980;28;20104;-77
2022/06/17 06:00:32;;;;;;;8.23;6.35;;;;;;;17.53;71.95;68727.66;4967680;28;20039;-78
2022/06/17 06:02:59;;;;;;;10.70;6.93;;;;;;;;;;4978710;28;20030;-79
2022/06/17 06:05:27;;;;;;;8.32;6.60;;;;;;;17.78;70.96;68744.88;4990974;28;20141;-79
2022/06/17 06:07:53;;;;;;;10.97;7.17;;;;;;;17.88;70.90;68761.09;4977913;28;20046;-78
2022/06/17 06:10:19;;;;;;;8.93;6.15;;;;;;;17.99;71.19;68773.66;4985545;28;20040;-79
2022/06/17 06:12:53;;;;;;;8.18;6.45;;;;;;;18.06;70.31;68775.69;4980477;28;20031;-78
2022/06/17 06:15:24;;;;;;;8.23;6.55;;;;;;;18.08;70.45;68778.53;4973604;28;20039;-78
2022/06/17 06:17:50;;;;;;;9.10;6.13;;;;;;;18.15;70.19;68791.34;4970482;28;20039;-77
2022/06/17 06:20:17;;;;;;;8.20;6.20;;;;;;;18.19;70.03;68791.09;4986102;28;20413;-75
2022/06/17 06:22:42;;;;;;;9.23;6.85;;;;;;;;;;4969998;28;20054;-77
2022/06/17 06:25:09;;;;;;;9.07;6.82;;;;;;;;;;4982156;28;20422;-77
2022/06/17 06:27:35;;;;;;;10.45;6.53;;;;;;;18.34;70.47;68807.09;4986398;28;20042;-77
2022/06/17 06:30:00;;;;;;;10.13;7.07;;;;;;;18.38;70.18;68817.59;4988151;28;20041;-76
2022/06/17 06:32:26;;;;;;;11.57;6.68;;;;;;;18.44;69.56;68818.50;5001250;28;20093;-77
2022/06/17 06:34:54;;;;;;;9.57;7.13;;;;;;;18.46;70.14;68826.19;4990746;28;20046;-78
2022/06/17 06:37:19;;;;;;;8.85;6.95;;;;;;;18.46;70.34;68820.78;4992343;28;20691;-77
2022/06/17 06:39:45;;;;;;;10.90;6.45;;;;;;;18.46;70.64;68829.44;4989414;28;20044;-78
2022/06/17 06:42:11;;;;;;;7.30;6.22;;;;;;;;;;5005948;28;20042;-78
2022/06/17 06:44:36;;;;;;;9.23;6.85;;;;;;;18.57;70.85;68838.75;4982536;28;20490;-77
2022/06/17 06:47:01;;;;;;;8.20;6.35;;;;;;;;;;4986348;28;20043;-77
2022/06/17 06:49:27;;;;;;;9.18;5.97;;;;;;;;;;4982693;28;20050;-80
2022/06/17 06:51:52;;;;;;;7.15;5.40;;;;;;;;;;4981635;28;20600;-77
2022/06/17 06:54:17;;;;;;;9.50;5.70;;;;;;;19.10;67.32;68897.59;4987069;28;20046;-79
2022/06/17 06:56:42;;;;;;;8.90;5.75;;;;;;;19.23;66.71;68906.47;4974738;28;20297;-77
2022/06/17 06:59:11;;;;;;;7.43;5.22;;;;;;;19.32;65.60;68924.84;4971332;28;20073;-77
2022/06/17 07:01:36;;;;;;;9.05;5.18;;;;;;;;;;4982082;28;20034;-76
2022/06/17 07:04:03;;;;;;;6.00;4.75;;;;;;;;;;4971641;28;20058;-78
2022/06/17 07:06:28;;;;;;;5.85;4.25;;;;;;;;;;4981563;28;20467;-78
2022/06/17 07:08:53;;;;;;;7.70;4.57;;;;;;;19.67;63.17;68956.19;4975221;28;20206;-79
2022/06/17 07:11:19;;;;;;;7.00;4.20;;;;;;;19.71;61.55;68965.59;4988450;28;20677;-78
2022/06/17 07:13:44;;;;;;;9.02;3.75;;;;;;;;;;4975484;28;20054;-78
2022/06/17 07:16:10;;;;;;;7.05;3.72;;;;;;;;;;4969448;28;20070;-78
2022/06/17 07:18:37;;;;;;;6.68;3.60;;;;;;;20.12;61.64;69003.78;4980549;28;20034;-78
2022/06/17 07:21:06;;;;;;;7.43;3.40;;;;;;;20.31;60.11;69027.63;4970966;28;20585;-78
2022/06/17 07:23:37;;;;;;;5.70;3.30;;;;;;;20.48;59.91;69051.91;4968707;28;20039;-78
2022/06/17 07:26:05;;;;;;;7.25;3.42;;;;;;;;;;4984695;28;20137;-78
2022/06/17 07:28:32;;;;;;;5.72;3.13;;;;;;;20.59;57.46;69064.50;4969859;28;20054;-78
2022/06/17 07:30:58;;;;;;;5.38;2.72;;;;;;;20.76;56.01;69082.81;4968165;28;20038;-76
2022/06/17 07:33:25;;;;;;;3.72;2.78;;;;;;;;;;4969313;28;20053;-77
2022/06/17 07:35:53;;;;;;;6.18;3.17;;;;;;;20.77;55.16;69079.13;4967856;28;20039;-78
2022/06/17 07:41:05;;;;;;;3.50;2.20;;;;;;;20.87;54.39;69090.56;4973607;28;20405;-76
2022/06/17 07:43:31;;;;;;;4.80;2.53;;;;;;;20.89;54.49;69092.84;4968909;28;20045;-78
2022/06/17 07:45:56;;;;;;;3.63;2.40;;;;;;;20.89;55.08;69092.84;4981173;28;20125;-79
2022/06/17 07:48:22;;;;;;;4.57;2.22;;;;;;;20.91;55.46;69095.13;4974092;28;20065;-78
2022/06/17 07:50:48;;;;;;;5.85;1.90;;;;;;;20.91;53.69;69099.97;4978319;28;20050;-77
2022/06/17 07:53:14;;;;;;;4.47;2.05;;;;;;;20.96;54.00;69100.84;4971982;28;20089;-77
2022/06/17 07:55:41;;;;;;;5.03;2.20;;;;;;;;;;4978328;28;20047;-78
2022/06/17 07:58:07;;;;;;;4.05;1.90;;;;;;;21.19;53.29;69123.88;4983501;28;20839;-78
2022/06/17 08:00:37;;;;;;;4.75;2.33;;;;;;;21.29;53.05;69132.06;4972686;28;20166;-78
2022/06/17 08:03:04;;;;;;;3.85;2.20;;;;;;;21.27;52.03;69135.19;4984853;28;20070;-76
2022/06/17 08:05:30;;;;;;;7.07;2.60;;;;;;;21.28;52.07;69135.75;4985223;28;20790;-77
2022/06/17 08:07:56;;;;;;;6.05;2.03;;;;;;;21.29;53.44;69137.47;4983497;28;20161;-77
2022/06/17 08:10:23;;;;;;;4.18;2.45;;;;;;;;;;4975887;28;20065;-78
2022/06/17 08:12:48;;;;;;;6.15;2.53;;;;;;;21.52;52.18;69168.66;4968728;28;20035;-76
2022/06/17 08:15:14;;;;;;;7.13;2.25;;;;;;;;;;4924614;28;1158072;-78
2022/06/17 08:17:40;;;;;;;4.82;2.40;;;;;;;21.83;52.49;69198.13;4982235;28;20050;-76
2022/06/17 08:20:30;;;;;;;3.85;2.30;;;;;;;22.01;52.14;69218.19;4975613;28;20041;-78
2022/06/17 08:22:56;;;;;;;4.70;2.30;;;;;;;22.09;51.88;69227.31;4970317;28;22679;-77
2022/06/17 08:25:21;;;;;;;6.55;3.10;;;;;;;;;;4969946;28;20097;-78
2022/06/17 08:27:50;;;;;;;5.05;2.80;;;;;;;22.40;51.88;69261.13;4969248;28;20502;-77
2022/06/17 08:30:18;;;;;;;4.57;3.00;;;;;;;22.36;49.53;69254.41;4970306;28;20046;-78
2022/06/17 08:32:47;;;;;;;4.50;2.65;;;;;;;22.38;50.27;69259.41;4970266;28;20054;-75
2022/06/17 08:35:19;;;;;;;8.00;3.00;;;;;;;22.38;49.20;69258.84;4979402;28;20402;-78
2022/06/17 08:37:47;;;;;;;4.22;2.65;;;;;;;22.45;50.27;69264.16;4983386;28;20046;-78
2022/06/17 08:40:24;;;;;;;6.43;3.25;;;;;;;22.38;49.60;69259.41;4963744;28;20042;-79
2022/06/17 08:43:31;;;;;;;7.57;2.70;;;;;;;22.34;48.92;69254.25;4977211;28;20046;-77
2022/06/17 08:46:02;;;;;;;8.05;2.90;;;;;;;22.30;49.22;69244.84;4927149;29;20058;-78
2022/06/17 08:48:48;;;;;;;5.85;2.80;;;;;;;22.32;49.00;69249.81;4927837;29;20071;-77
2022/06/17 08:51:24;;;;;;;5.88;2.85;;;;;;;22.34;48.82;69254.25;4952853;28;20043;-76
2022/06/17 08:54:06;;;;;;;6.45;3.08;;;;;;;22.52;50.32;69269.44;4953784;28;20380;-78
2022/06/17 08:56:53;;;;;;;5.63;2.90;;;;;;;22.61;49.96;69284.59;4953833;28;20124;-77
2022/06/17 08:59:31;;;;;;;6.60;2.92;;;;;;;22.84;48.51;69307.66;4979843;28;20038;-77
2022/06/17 09:02:19;;;;;;;4.05;2.53;;;;;;;;;;4959438;28;20054;-77
2022/06/17 09:05:09;;;;;;;5.90;2.60;;;;;;;22.94;49.00;69322.41;4973769;28;20129;-77
2022/06/17 09:07:37;;;;;;;6.20;2.45;;;;;;;22.95;47.72;69318.13;4984127;28;20036;-79
2022/06/17 09:10:18;;;;;;;7.87;2.97;;;;;;;22.99;47.14;69327.59;4977692;28;20046;-77
2022/06/17 09:13:01;;;;;;;4.85;2.42;;;;;;;23.24;49.59;69355.06;4983831;28;20316;-79
2022/06/17 09:15:26;;;;;;;6.28;3.03;;;;;;;;;;4983749;28;20043;-76
2022/06/17 09:18:34;;;;;;;5.20;2.67;;;;;;;23.54;46.88;69389.47;4974801;28;20042;-79
2022/06/17 09:21:28;;;;;;;5.93;2.63;;;;;;;23.48;46.08;69379.88;4915892;29;20044;-78
2022/06/17 09:23:56;;;;;;;5.63;2.67;;;;;;;;;;4978290;28;20044;-77
2022/06/17 09:26:33;;;;;;;5.82;3.00;;;;;;;23.38;46.94;69371.13;4966898;28;20552;-77
2022/06/17 09:29:28;;;;;;;5.20;2.80;;;;;;;23.55;47.99;69390.59;4983606;28;20070;-78
2022/06/17 09:32:20;;;;;;;4.38;2.50;;;;;;;23.48;45.79;69379.28;4925746;28;20683;-78
2022/06/17 09:34:54;;;;;;;5.63;2.88;;;;;;;23.49;45.35;69383.16;4975187;28;20190;-78
2022/06/17 09:37:28;;;;;;;5.45;2.70;;;;;;;23.67;46.18;69403.22;4946813;28;20075;-77
2022/06/17 09:40:00;;;;;;;6.28;2.40;;;;;;;23.76;44.58;69413.53;4948938;28;20074;-78
2022/06/17 09:42:41;;;;;;;4.93;2.90;;;;;;;23.76;43.10;69413.53;4945990;28;20054;-78
2022/06/17 09:45:06;;;;;;;5.40;2.67;;;;;;;23.97;43.56;69437.63;4966279;28;20063;-78
2022/06/17 09:47:46;;;;;;;5.63;2.70;;;;;;;23.98;43.81;69438.75;4975885;28;20062;-77
2022/06/17 09:50:22;;;;;;;5.10;2.83;;;;;;;23.91;43.33;69427.44;4969320;28;20046;-78
2022/06/17 09:52:55;;;;;;;6.25;2.63;;;;;;;23.92;42.88;69426.44;4983467;28;20048;-78
2022/06/17 09:55:33;;;;;;;4.15;2.53;;;;;;;24.09;42.17;69451.38;4984756;28;20438;-77
2022/06/17 09:58:25;;;;;;;5.53;2.10;;;;;;;24.22;44.87;69465.13;4979472;28;20104;-77
2022/06/17 10:00:54;;;;;;;4.25;2.50;;;;;;;24.31;42.32;69476.03;4972027;28;20304;-77
2022/06/17 10:03:22;;;;;;;6.55;2.72;;;;;;;24.42;42.93;69485.34;4969970;28;20041;-78
2022/06/17 10:05:50;;;;;;;4.63;2.70;;;;;;;;;;4964367;28;20042;-79
2022/06/17 10:08:43;;;;;;;4.13;2.50;;;;;;;24.57;42.11;69504.72;4977303;28;20134;-79
2022/06/17 10:11:18;;;;;;;5.18;2.50;;;;;;;24.56;42.00;69503.56;4954686;28;20038;-77
2022/06/17 10:14:06;;;;;;;5.22;2.40;;;;;;;24.50;40.70;69497.25;4964159;28;20046;-78
2022/06/17 10:20:16;;;;;;;5.53;2.20;;;;;;;;;;4957648;28;20431;-78
2022/06/17 10:23:23;;;;;;;5.35;2.20;;;;;;;24.98;42.25;69548.44;4944151;28;20039;-78
2022/06/17 10:26:13;;;;;;;4.80;1.92;;;;;;;25.17;40.94;69569.69;4904380;29;20068;-78
2022/06/17 10:28:47;;;;;;;3.30;1.58;;;;;;;25.25;39.64;69578.28;4904194;29;20044;-78
2022/06/17 10:31:44;;;;;;;5.43;1.73;;;;;;;24.95;40.61;69547.16;4944949;28;20039;-77
2022/06/17 10:34:19;;;;;;;3.47;1.75;;;;;;;24.96;39.34;69548.28;4951126;28;20078;-77
2022/06/17 10:36:47;;;;;;;2.28;1.45;;;;;;;24.89;39.41;69535.41;4962652;28;20621;-78
2022/06/17 10:39:16;;;;;;;4.30;1.80;;;;;;;24.95;40.07;69541.72;4964649;28;20047;-77
2022/06/17 10:41:42;;;;;;;4.75;2.13;;;;;;;25.05;41.47;69555.91;4973268;28;20523;-78
2022/06/17 10:44:11;;;;;;;3.65;1.70;;;;;;;25.25;40.77;69578.28;4976212;28;20524;-78
2022/06/17 10:46:41;;;;;;;3.80;1.40;;;;;;;25.27;39.12;69577.28;4973315;28;20038;-78
2022/06/17 10:49:21;;;;;;;3.38;1.40;;;;;;;25.37;39.91;69591.47;4960992;28;20035;-77
2022/06/17 10:51:51;;;;;;;2.45;1.20;;;;;;;25.36;40.03;69590.34;4942757;28;20047;-77
2022/06/17 10:54:30;;;;;;;3.90;1.50;;;;;;;25.10;39.83;69561.06;4949308;28;20046;-78
2022/06/17 10:57:00;;;;;;;;;;;;;;;25.28;39.67;69584.44;4965526;28;20085;-78
2022/06/17 10:59:41;;;;;;;4.55;1.55;;;;;;;25.43;41.57;69595.63;4965730;28;19924;-79
2022/06/17 11:02:23;;;;;;;2.20;1.25;;;;;;;;;;4958331;28;20046;-78
2022/06/17 11:04:51;;;;;;;2.55;1.40;;;;;;;25.59;38.96;69616.72;4957614;28;20123;-78
2022/06/17 11:07:21;;;;;;;2.17;1.40;;;;;;;25.72;39.61;69631.09;4981501;28;20048;-79
2022/06/17 11:09:53;;;;;;;3.67;1.60;;;;;;;25.92;38.25;69655.63;4974956;28;20038;-79
2022/06/17 11:12:32;;;;;;;3.33;1.60;;;;;;;25.80;37.95;69642.97;4978986;28;20070;-78
2022/06/17 11:15:05;;;;;;;2.88;1.42;;;;;;;25.80;37.33;69640.25;4975159;28;20581;-78
2022/06/17 11:17:39;;;;;;;4.03;1.45;;;;;;;25.83;39.22;69646.44;4976697;28;20042;-78
2022/06/17 11:20:18;;;;;;;2.60;1.30;;;;;;;25.75;37.37;69631.22;4972615;28;20065;-78
2022/06/17 11:22:54;;;;;;;3.00;1.40;;;;;;;;;;4975462;28;20054;-78
2022/06/17 11:25:35;;;;;;;3.15;1.75;;;;;;;25.63;37.82;69618.00;4985468;28;20060;-77
2022/06/17 11:28:19;;;;;;;2.78;1.40;;;;;;;25.73;38.56;69634.94;4972118;28;20035;-77
2022/06/17 11:30:59;;;;;;;4.30;2.00;;;;;;;25.79;36.91;69638.53;4970753;28;20488;-78
2022/06/17 11:33:38;;;;;;;5.57;1.83;;;;;;;25.74;38.06;69635.53;4938638;28;20047;-78
2022/06/17 11:36:06;;;;;;;;;;;;;;;25.74;39.02;69633.38;4975141;28;20064;-78
2022/06/17 11:38:33;;;;;;;3.95;1.60;;;;;;;25.79;38.32;69641.84;4983545;28;19918;-78
2022/06/17 11:41:02;;;;;;;4.15;1.83;;;;;;;25.87;40.05;69648.31;4971587;28;20465;-78
2022/06/17 11:43:42;;;;;;;2.85;1.63;;;;;;;26.07;38.59;69665.25;4974752;28;20043;-78
2022/06/17 11:46:51;;;;;;;5.70;1.80;;;;;;;26.26;38.36;69691.34;4977567;28;20054;-77
2022/06/17 11:49:19;;;;;;;3.17;1.80;;;;;;;26.16;40.34;69683.19;4926984;28;20053;-77
2022/06/17 11:51:55;;;;;;;5.40;2.20;;;;;;;26.24;38.49;69692.38;4980783;28;20042;-78
2022/06/17 11:54:23;;;;;;;5.85;2.20;;;;;;;;;;4976261;28;20274;-78
2022/06/17 11:56:51;;;;;;;3.93;2.23;;;;;;;26.08;38.33;69674.00;4971453;28;20039;-78
2022/06/17 11:59:19;;;;;;;7.82;2.58;;;;;;;26.21;38.98;69686.19;4972706;28;20047;-78
2022/06/17 12:01:49;;;;;;;;;;;;;;;26.42;37.56;69707.00;4981334;28;20490;-78
2022/06/17 12:04:54;;;;;;;6.78;2.15;;;;;;;26.45;37.84;69712.59;4968640;28;19917;-78
2022/06/17 12:07:27;;;;;;;4.85;2.22;;;;;;;26.43;37.92;69710.88;4969812;28;20078;-78
2022/06/17 12:10:01;;;;;;;6.18;1.92;;;;;;;26.67;37.28;69740.63;4982797;28;20055;-78
2022/06/17 12:12:28;;;;;;;6.50;1.80;;;;;;;26.76;35.83;69744.94;4978751;28;20041;-78
2022/06/17 12:15:00;;;;;;;3.97;1.95;;;;;;;26.78;35.50;69753.25;4983738;28;20523;-77
2022/06/17 12:17:28;;;;;;;5.13;2.03;;;;;;;26.82;34.66;69751.81;4984184;28;20114;-78
2022/06/17 12:19:54;;;;;;;3.85;1.92;;;;;;;26.83;34.58;69752.97;4982926;28;20604;-78
2022/06/17 12:22:36;;;;;;;4.80;2.10;;;;;;;26.93;35.78;69766.59;4972633;28;20042;-78
2022/06/17 12:25:18;;;;;;;5.78;2.08;;;;;;;;;;4977184;28;20042;-78
2022/06/17 12:27:59;;;;;;;9.25;2.30;;;;;;;26.79;35.90;69753.84;4987858;28;20568;-78